sensor_id;sensor_type;location;lat;lon;timestamp;P1;durP1;ratioP1;P2;durP2;ratioP2
7336;SDS011;54510;42.016;23.098;2024-03-02T00:01:14;20.52;;;10.15;;
7336;SDS011;54510;42.016;23.098;2024-03-02T00:03:40;16.25;;;10.52;;
7336;SDS011;54510;42.016;23.098;2024-03-02T00:06:07;18.45;;;10.80;;
7336;SDS011;54510;42.016;23.098;2024-03-02T00:08:32;23.60;;;11.68;;
7336;SDS011;54510;42.016;23.098;2024-03-02T00:10:58;22.65;;;13.40;;
7336;SDS011;54510;42.016;23.098;2024-03-02T00:13:24;23.15;;;13.13;;
7336;SDS011;54510;42.016;23.098;2024-03-02T00:15:53;23.77;;;13.90;;
7336;SDS011;54510;42.016;23.098;2024-03-02T00:18:19;24.20;;;14.20;;
7336;SDS011;54510;42.016;23.098;2024-03-02T00:20:45;23.05;;;14.88;;
7336;SDS011;54510;42.016;23.098;2024-03-02T00:23:12;30.42;;;15.02;;
7336;SDS011;54510;42.016;23.098;2024-03-02T00:25:40;26.88;;;13.95;;
7336;SDS011;54510;42.016;23.098;2024-03-02T00:28:13;25.95;;;13.60;;
7336;SDS011;54510;42.016;23.098;2024-03-02T00:33:19;22.83;;;12.43;;
7336;SDS011;54510;42.016;23.098;2024-03-02T00:35:45;19.90;;;11.65;;
7336;SDS011;54510;42.016;23.098;2024-03-02T00:38:10;20.35;;;12.02;;
7336;SDS011;54510;42.016;23.098;2024-03-02T00:40:36;24.45;;;12.98;;
7336;SDS011;54510;42.016;23.098;2024-03-02T00:43:01;23.58;;;11.95;;
7336;SDS011;54510;42.016;23.098;2024-03-02T00:45:28;23.13;;;13.85;;
7336;SDS011;54510;42.016;23.098;2024-03-02T00:47:53;21.17;;;13.75;;
7336;SDS011;54510;42.016;23.098;2024-03-02T00:50:19;21.55;;;12.65;;
7336;SDS011;54510;42.016;23.098;2024-03-02T00:52:44;29.27;;;13.40;;
7336;SDS011;54510;42.016;23.098;2024-03-02T00:55:09;22.05;;;13.45;;
7336;SDS011;54510;42.016;23.098;2024-03-02T00:57:35;24.58;;;14.25;;
7336;SDS011;54510;42.016;23.098;2024-03-02T01:00:00;27.25;;;12.90;;
7336;SDS011;54510;42.016;23.098;2024-03-02T01:02:26;23.88;;;13.63;;
7336;SDS011;54510;42.016;23.098;2024-03-02T01:04:51;20.90;;;13.23;;
7336;SDS011;54510;42.016;23.098;2024-03-02T01:07:17;22.63;;;13.57;;
7336;SDS011;54510;42.016;23.098;2024-03-02T01:09:42;23.45;;;13.52;;
7336;SDS011;54510;42.016;23.098;2024-03-02T01:12:07;28.50;;;13.90;;
7336;SDS011;54510;42.016;23.098;2024-03-02T01:14:32;28.33;;;13.50;;
7336;SDS011;54510;42.016;23.098;2024-03-02T01:16:57;24.05;;;14.15;;
7336;SDS011;54510;42.016;23.098;2024-03-02T01:19:23;23.75;;;13.45;;
7336;SDS011;54510;42.016;23.098;2024-03-02T01:21:48;19.67;;;12.45;;
7336;SDS011;54510;42.016;23.098;2024-03-02T01:24:15;27.55;;;13.35;;
7336;SDS011;54510;42.016;23.098;2024-03-02T01:26:41;23.88;;;12.85;;
7336;SDS011;54510;42.016;23.098;2024-03-02T01:29:06;27.02;;;13.52;;
7336;SDS011;54510;42.016;23.098;2024-03-02T01:31:32;23.73;;;13.88;;
7336;SDS011;54510;42.016;23.098;2024-03-02T01:33:57;19.95;;;12.23;;
7336;SDS011;54510;42.016;23.098;2024-03-02T01:36:22;26.38;;;13.80;;
7336;SDS011;54510;42.016;23.098;2024-03-02T01:38:48;23.70;;;13.27;;
7336;SDS011;54510;42.016;23.098;2024-03-02T01:41:14;22.65;;;13.57;;
7336;SDS011;54510;42.016;23.098;2024-03-02T01:43:39;27.45;;;14.23;;
7336;SDS011;54510;42.016;23.098;2024-03-02T01:46:04;30.52;;;13.65;;
7336;SDS011;54510;42.016;23.098;2024-03-02T01:48:30;27.02;;;14.57;;
7336;SDS011;54510;42.016;23.098;2024-03-02T01:50:55;22.33;;;12.80;;
7336;SDS011;54510;42.016;23.098;2024-03-02T01:53:20;28.15;;;14.05;;
7336;SDS011;54510;42.016;23.098;2024-03-02T01:55:45;21.40;;;13.52;;
7336;SDS011;54510;42.016;23.098;2024-03-02T01:58:10;28.73;;;14.52;;
7336;SDS011;54510;42.016;23.098;2024-03-02T02:00:36;25.98;;;12.20;;
7336;SDS011;54510;42.016;23.098;2024-03-02T02:03:02;26.90;;;13.25;;
7336;SDS011;54510;42.016;23.098;2024-03-02T02:05:27;22.98;;;12.75;;
7336;SDS011;54510;42.016;23.098;2024-03-02T02:07:52;18.83;;;12.25;;
7336;SDS011;54510;42.016;23.098;2024-03-02T02:10:18;29.40;;;14.55;;
7336;SDS011;54510;42.016;23.098;2024-03-02T02:12:43;23.30;;;12.80;;
7336;SDS011;54510;42.016;23.098;2024-03-02T02:15:21;24.88;;;13.40;;
7336;SDS011;54510;42.016;23.098;2024-03-02T02:17:46;22.33;;;12.68;;
7336;SDS011;54510;42.016;23.098;2024-03-02T02:20:11;22.40;;;13.65;;
7336;SDS011;54510;42.016;23.098;2024-03-02T02:22:37;22.65;;;12.27;;
7336;SDS011;54510;42.016;23.098;2024-03-02T02:25:02;24.88;;;13.30;;
7336;SDS011;54510;42.016;23.098;2024-03-02T02:27:27;24.52;;;13.35;;
7336;SDS011;54510;42.016;23.098;2024-03-02T02:29:52;22.27;;;12.57;;
7336;SDS011;54510;42.016;23.098;2024-03-02T02:32:18;24.90;;;13.45;;
7336;SDS011;54510;42.016;23.098;2024-03-02T02:34:43;20.50;;;13.45;;
7336;SDS011;54510;42.016;23.098;2024-03-02T02:37:08;21.40;;;12.55;;
7336;SDS011;54510;42.016;23.098;2024-03-02T02:39:33;25.10;;;14.05;;
7336;SDS011;54510;42.016;23.098;2024-03-02T02:41:59;25.83;;;13.98;;
7336;SDS011;54510;42.016;23.098;2024-03-02T02:44:26;20.08;;;12.38;;
7336;SDS011;54510;42.016;23.098;2024-03-02T02:46:51;23.70;;;12.85;;
7336;SDS011;54510;42.016;23.098;2024-03-02T02:49:16;22.65;;;12.05;;
7336;SDS011;54510;42.016;23.098;2024-03-02T02:51:42;21.40;;;12.32;;
7336;SDS011;54510;42.016;23.098;2024-03-02T02:54:07;21.88;;;12.55;;
7336;SDS011;54510;42.016;23.098;2024-03-02T02:56:32;18.23;;;11.75;;
7336;SDS011;54510;42.016;23.098;2024-03-02T02:58:57;21.27;;;11.73;;
7336;SDS011;54510;42.016;23.098;2024-03-02T03:01:23;21.23;;;13.35;;
7336;SDS011;54510;42.016;23.098;2024-03-02T03:03:48;22.15;;;12.55;;
7336;SDS011;54510;42.016;23.098;2024-03-02T03:06:14;26.38;;;13.30;;
7336;SDS011;54510;42.016;23.098;2024-03-02T03:08:39;25.75;;;14.13;;
7336;SDS011;54510;42.016;23.098;2024-03-02T03:11:04;25.05;;;13.40;;
7336;SDS011;54510;42.016;23.098;2024-03-02T03:13:33;25.58;;;14.65;;
7336;SDS011;54510;42.016;23.098;2024-03-02T03:15:58;26.88;;;14.25;;
7336;SDS011;54510;42.016;23.098;2024-03-02T03:18:24;21.92;;;12.57;;
7336;SDS011;54510;42.016;23.098;2024-03-02T03:20:49;23.08;;;13.50;;
7336;SDS011;54510;42.016;23.098;2024-03-02T03:23:15;18.80;;;11.55;;
7336;SDS011;54510;42.016;23.098;2024-03-02T03:25:43;22.00;;;12.38;;
7336;SDS011;54510;42.016;23.098;2024-03-02T03:28:09;27.60;;;12.20;;
7336;SDS011;54510;42.016;23.098;2024-03-02T03:30:37;22.55;;;12.93;;
7336;SDS011;54510;42.016;23.098;2024-03-02T03:33:03;23.75;;;12.55;;
7336;SDS011;54510;42.016;23.098;2024-03-02T03:35:28;21.50;;;11.93;;
7336;SDS011;54510;42.016;23.098;2024-03-02T03:37:53;26.33;;;13.23;;
7336;SDS011;54510;42.016;23.098;2024-03-02T03:40:19;21.13;;;12.35;;
7336;SDS011;54510;42.016;23.098;2024-03-02T03:42:44;21.65;;;11.57;;
7336;SDS011;54510;42.016;23.098;2024-03-02T03:45:09;27.10;;;13.80;;
7336;SDS011;54510;42.016;23.098;2024-03-02T03:47:35;23.08;;;13.52;;
7336;SDS011;54510;42.016;23.098;2024-03-02T03:50:00;26.10;;;13.52;;
7336;SDS011;54510;42.016;23.098;2024-03-02T03:52:25;25.33;;;13.45;;
7336;SDS011;54510;42.016;23.098;2024-03-02T03:54:50;26.75;;;13.05;;
7336;SDS011;54510;42.016;23.098;2024-03-02T03:57:16;28.67;;;13.57;;
7336;SDS011;54510;42.016;23.098;2024-03-02T03:59:41;25.20;;;14.18;;
7336;SDS011;54510;42.016;23.098;2024-03-02T04:02:07;22.45;;;13.35;;
7336;SDS011;54510;42.016;23.098;2024-03-02T04:04:33;22.42;;;12.75;;
7336;SDS011;54510;42.016;23.098;2024-03-02T04:06:58;24.98;;;14.57;;
7336;SDS011;54510;42.016;23.098;2024-03-02T04:09:23;30.10;;;13.68;;
7336;SDS011;54510;42.016;23.098;2024-03-02T04:11:49;24.60;;;12.93;;
7336;SDS011;54510;42.016;23.098;2024-03-02T04:14:14;27.02;;;15.20;;
7336;SDS011;54510;42.016;23.098;2024-03-02T04:16:39;24.27;;;14.60;;
7336;SDS011;54510;42.016;23.098;2024-03-02T04:19:04;28.27;;;13.55;;
7336;SDS011;54510;42.016;23.098;2024-03-02T04:21:30;25.00;;;13.65;;
7336;SDS011;54510;42.016;23.098;2024-03-02T04:23:55;22.88;;;12.55;;
7336;SDS011;54510;42.016;23.098;2024-03-02T04:26:24;23.45;;;12.30;;
7336;SDS011;54510;42.016;23.098;2024-03-02T04:28:50;20.95;;;12.73;;
7336;SDS011;54510;42.016;23.098;2024-03-02T04:31:15;23.23;;;13.38;;
7336;SDS011;54510;42.016;23.098;2024-03-02T04:33:41;25.38;;;14.15;;
7336;SDS011;54510;42.016;23.098;2024-03-02T04:36:06;26.08;;;14.10;;
7336;SDS011;54510;42.016;23.098;2024-03-02T04:38:34;28.50;;;13.95;;
7336;SDS011;54510;42.016;23.098;2024-03-02T04:40:59;27.27;;;14.85;;
7336;SDS011;54510;42.016;23.098;2024-03-02T04:43:24;26.20;;;15.38;;
7336;SDS011;54510;42.016;23.098;2024-03-02T04:45:50;27.05;;;16.08;;
7336;SDS011;54510;42.016;23.098;2024-03-02T04:48:15;32.67;;;16.05;;
7336;SDS011;54510;42.016;23.098;2024-03-02T04:50:40;32.88;;;16.90;;
7336;SDS011;54510;42.016;23.098;2024-03-02T04:53:05;31.25;;;16.65;;
7336;SDS011;54510;42.016;23.098;2024-03-02T04:55:31;28.70;;;15.48;;
7336;SDS011;54510;42.016;23.098;2024-03-02T04:57:58;26.13;;;16.67;;
7336;SDS011;54510;42.016;23.098;2024-03-02T05:00:24;21.95;;;13.30;;
7336;SDS011;54510;42.016;23.098;2024-03-02T05:02:49;22.55;;;13.68;;
7336;SDS011;54510;42.016;23.098;2024-03-02T05:05:16;26.23;;;13.93;;
7336;SDS011;54510;42.016;23.098;2024-03-02T05:07:41;23.88;;;13.40;;
7336;SDS011;54510;42.016;23.098;2024-03-02T05:10:09;20.58;;;14.05;;
7336;SDS011;54510;42.016;23.098;2024-03-02T05:12:35;21.20;;;13.32;;
7336;SDS011;54510;42.016;23.098;2024-03-02T05:15:09;25.05;;;13.80;;
7336;SDS011;54510;42.016;23.098;2024-03-02T05:17:38;20.85;;;12.70;;
7336;SDS011;54510;42.016;23.098;2024-03-02T05:20:04;23.35;;;13.85;;
7336;SDS011;54510;42.016;23.098;2024-03-02T05:22:29;27.00;;;13.57;;
7336;SDS011;54510;42.016;23.098;2024-03-02T05:24:55;26.25;;;15.77;;
7336;SDS011;54510;42.016;23.098;2024-03-02T05:27:20;23.85;;;14.30;;
7336;SDS011;54510;42.016;23.098;2024-03-02T05:29:45;23.45;;;12.10;;
7336;SDS011;54510;42.016;23.098;2024-03-02T05:32:12;22.92;;;13.80;;
7336;SDS011;54510;42.016;23.098;2024-03-02T05:34:37;25.23;;;14.38;;
7336;SDS011;54510;42.016;23.098;2024-03-02T05:37:02;25.40;;;15.43;;
7336;SDS011;54510;42.016;23.098;2024-03-02T05:39:27;24.52;;;12.70;;
7336;SDS011;54510;42.016;23.098;2024-03-02T05:41:53;20.65;;;13.32;;
7336;SDS011;54510;42.016;23.098;2024-03-02T05:44:18;22.55;;;13.32;;
7336;SDS011;54510;42.016;23.098;2024-03-02T05:46:44;29.35;;;15.48;;
7336;SDS011;54510;42.016;23.098;2024-03-02T05:49:10;26.30;;;14.00;;
7336;SDS011;54510;42.016;23.098;2024-03-02T05:51:35;21.55;;;12.80;;
7336;SDS011;54510;42.016;23.098;2024-03-02T05:54:00;21.20;;;11.68;;
7336;SDS011;54510;42.016;23.098;2024-03-02T05:56:25;24.58;;;14.38;;
7336;SDS011;54510;42.016;23.098;2024-03-02T05:58:51;22.67;;;13.30;;
7336;SDS011;54510;42.016;23.098;2024-03-02T06:01:35;20.02;;;11.90;;
7336;SDS011;54510;42.016;23.098;2024-03-02T06:04:00;25.23;;;14.68;;
7336;SDS011;54510;42.016;23.098;2024-03-02T06:06:25;25.95;;;13.98;;
7336;SDS011;54510;42.016;23.098;2024-03-02T06:08:51;23.52;;;13.18;;
7336;SDS011;54510;42.016;23.098;2024-03-02T06:11:17;22.58;;;13.70;;
7336;SDS011;54510;42.016;23.098;2024-03-02T06:13:42;28.23;;;13.70;;
7336;SDS011;54510;42.016;23.098;2024-03-02T06:16:07;24.65;;;12.63;;
7336;SDS011;54510;42.016;23.098;2024-03-02T06:18:33;19.95;;;11.68;;
7336;SDS011;54510;42.016;23.098;2024-03-02T06:20:58;21.95;;;13.65;;
7336;SDS011;54510;42.016;23.098;2024-03-02T06:23:24;22.90;;;13.45;;
7336;SDS011;54510;42.016;23.098;2024-03-02T06:25:49;23.90;;;14.52;;
7336;SDS011;54510;42.016;23.098;2024-03-02T06:28:15;24.08;;;14.65;;
7336;SDS011;54510;42.016;23.098;2024-03-02T06:30:41;27.10;;;14.35;;
7336;SDS011;54510;42.016;23.098;2024-03-02T06:33:06;27.30;;;14.80;;
7336;SDS011;54510;42.016;23.098;2024-03-02T06:35:31;24.33;;;14.80;;
7336;SDS011;54510;42.016;23.098;2024-03-02T06:37:56;32.25;;;18.88;;
7336;SDS011;54510;42.016;23.098;2024-03-02T06:40:22;27.77;;;16.50;;
7336;SDS011;54510;42.016;23.098;2024-03-02T06:42:47;28.33;;;15.50;;
7336;SDS011;54510;42.016;23.098;2024-03-02T06:45:12;25.75;;;16.23;;
7336;SDS011;54510;42.016;23.098;2024-03-02T06:47:37;24.85;;;15.82;;
7336;SDS011;54510;42.016;23.098;2024-03-02T06:50:03;29.98;;;17.45;;
7336;SDS011;54510;42.016;23.098;2024-03-02T06:52:28;30.67;;;16.63;;
7336;SDS011;54510;42.016;23.098;2024-03-02T06:54:53;28.08;;;16.30;;
7336;SDS011;54510;42.016;23.098;2024-03-02T06:57:19;32.85;;;17.40;;
7336;SDS011;54510;42.016;23.098;2024-03-02T06:59:45;27.55;;;16.58;;
7336;SDS011;54510;42.016;23.098;2024-03-02T07:02:11;31.48;;;15.95;;
7336;SDS011;54510;42.016;23.098;2024-03-02T07:04:36;27.60;;;16.33;;
7336;SDS011;54510;42.016;23.098;2024-03-02T07:07:02;28.85;;;17.42;;
7336;SDS011;54510;42.016;23.098;2024-03-02T07:09:28;27.42;;;16.33;;
7336;SDS011;54510;42.016;23.098;2024-03-02T07:11:53;27.98;;;15.50;;
7336;SDS011;54510;42.016;23.098;2024-03-02T07:14:18;31.83;;;17.05;;
7336;SDS011;54510;42.016;23.098;2024-03-02T07:16:44;30.80;;;16.88;;
7336;SDS011;54510;42.016;23.098;2024-03-02T07:19:10;29.38;;;17.77;;
7336;SDS011;54510;42.016;23.098;2024-03-02T07:21:35;34.17;;;18.25;;
7336;SDS011;54510;42.016;23.098;2024-03-02T07:24:00;31.08;;;16.45;;
7336;SDS011;54510;42.016;23.098;2024-03-02T07:26:28;23.55;;;14.32;;
7336;SDS011;54510;42.016;23.098;2024-03-02T07:28:53;25.98;;;15.55;;
7336;SDS011;54510;42.016;23.098;2024-03-02T07:31:18;28.40;;;15.52;;
7336;SDS011;54510;42.016;23.098;2024-03-02T07:33:44;32.67;;;17.70;;
7336;SDS011;54510;42.016;23.098;2024-03-02T07:36:10;23.67;;;15.55;;
7336;SDS011;54510;42.016;23.098;2024-03-02T07:38:35;24.40;;;14.55;;
7336;SDS011;54510;42.016;23.098;2024-03-02T07:41:01;26.63;;;14.45;;
7336;SDS011;54510;42.016;23.098;2024-03-02T07:43:26;24.75;;;14.90;;
7336;SDS011;54510;42.016;23.098;2024-03-02T07:45:52;27.13;;;15.65;;
7336;SDS011;54510;42.016;23.098;2024-03-02T07:48:17;45.83;;;25.02;;
7336;SDS011;54510;42.016;23.098;2024-03-02T07:50:43;31.40;;;20.42;;
7336;SDS011;54510;42.016;23.098;2024-03-02T07:53:08;40.88;;;25.27;;
7336;SDS011;54510;42.016;23.098;2024-03-02T07:55:34;36.17;;;21.63;;
7336;SDS011;54510;42.016;23.098;2024-03-02T07:58:00;25.98;;;14.80;;
7336;SDS011;54510;42.016;23.098;2024-03-02T08:00:25;21.17;;;12.75;;
7336;SDS011;54510;42.016;23.098;2024-03-02T08:02:51;21.42;;;13.05;;
7336;SDS011;54510;42.016;23.098;2024-03-02T08:05:17;29.10;;;16.42;;
7336;SDS011;54510;42.016;23.098;2024-03-02T08:07:44;25.58;;;15.95;;
7336;SDS011;54510;42.016;23.098;2024-03-02T08:10:09;26.38;;;15.68;;
7336;SDS011;54510;42.016;23.098;2024-03-02T08:12:35;23.17;;;14.50;;
7336;SDS011;54510;42.016;23.098;2024-03-02T08:15:00;20.38;;;12.75;;
7336;SDS011;54510;42.016;23.098;2024-03-02T08:17:25;22.60;;;14.07;;
7336;SDS011;54510;42.016;23.098;2024-03-02T08:19:50;22.38;;;14.23;;
7336;SDS011;54510;42.016;23.098;2024-03-02T08:22:16;19.35;;;12.07;;
7336;SDS011;54510;42.016;23.098;2024-03-02T08:24:41;21.10;;;12.65;;
7336;SDS011;54510;42.016;23.098;2024-03-02T08:27:06;20.45;;;12.13;;
7336;SDS011;54510;42.016;23.098;2024-03-02T08:29:32;21.73;;;13.43;;
7336;SDS011;54510;42.016;23.098;2024-03-02T08:31:57;25.35;;;15.68;;
7336;SDS011;54510;42.016;23.098;2024-03-02T08:34:22;24.88;;;16.48;;
7336;SDS011;54510;42.016;23.098;2024-03-02T08:36:47;20.48;;;13.80;;
7336;SDS011;54510;42.016;23.098;2024-03-02T08:39:13;19.83;;;11.77;;
7336;SDS011;54510;42.016;23.098;2024-03-02T08:41:41;25.10;;;15.05;;
7336;SDS011;54510;42.016;23.098;2024-03-02T08:44:08;40.58;;;25.50;;
7336;SDS011;54510;42.016;23.098;2024-03-02T08:46:33;20.63;;;11.32;;
7336;SDS011;54510;42.016;23.098;2024-03-02T08:48:58;16.73;;;11.05;;
7336;SDS011;54510;42.016;23.098;2024-03-02T08:51:24;18.23;;;12.18;;
7336;SDS011;54510;42.016;23.098;2024-03-02T08:53:49;17.88;;;12.38;;
7336;SDS011;54510;42.016;23.098;2024-03-02T08:56:15;18.75;;;10.50;;
7336;SDS011;54510;42.016;23.098;2024-03-02T08:58:41;17.85;;;10.40;;
7336;SDS011;54510;42.016;23.098;2024-03-02T09:01:06;19.83;;;11.35;;
7336;SDS011;54510;42.016;23.098;2024-03-02T09:03:33;26.38;;;15.02;;
7336;SDS011;54510;42.016;23.098;2024-03-02T09:05:58;21.17;;;11.93;;
7336;SDS011;54510;42.016;23.098;2024-03-02T09:08:24;20.92;;;12.57;;
7336;SDS011;54510;42.016;23.098;2024-03-02T09:10:49;20.35;;;12.43;;
7336;SDS011;54510;42.016;23.098;2024-03-02T09:13:14;21.48;;;11.45;;
7336;SDS011;54510;42.016;23.098;2024-03-02T09:15:39;17.23;;;11.13;;
7336;SDS011;54510;42.016;23.098;2024-03-02T09:18:05;19.52;;;13.18;;
7336;SDS011;54510;42.016;23.098;2024-03-02T09:20:31;20.08;;;11.98;;
7336;SDS011;54510;42.016;23.098;2024-03-02T09:22:57;19.27;;;10.60;;
7336;SDS011;54510;42.016;23.098;2024-03-02T09:25:22;14.40;;;8.68;;
7336;SDS011;54510;42.016;23.098;2024-03-02T09:27:47;15.65;;;9.82;;
7336;SDS011;54510;42.016;23.098;2024-03-02T09:30:12;18.90;;;11.30;;
7336;SDS011;54510;42.016;23.098;2024-03-02T09:32:38;18.63;;;11.30;;
7336;SDS011;54510;42.016;23.098;2024-03-02T09:35:04;19.88;;;12.20;;
7336;SDS011;54510;42.016;23.098;2024-03-02T09:37:29;19.52;;;10.82;;
7336;SDS011;54510;42.016;23.098;2024-03-02T09:39:54;18.40;;;10.48;;
7336;SDS011;54510;42.016;23.098;2024-03-02T09:42:20;18.73;;;11.30;;
7336;SDS011;54510;42.016;23.098;2024-03-02T09:44:45;23.77;;;11.90;;
7336;SDS011;54510;42.016;23.098;2024-03-02T09:47:10;13.35;;;9.30;;
7336;SDS011;54510;42.016;23.098;2024-03-02T09:49:35;16.88;;;10.48;;
7336;SDS011;54510;42.016;23.098;2024-03-02T09:52:01;15.48;;;10.88;;
7336;SDS011;54510;42.016;23.098;2024-03-02T09:54:28;14.65;;;9.60;;
7336;SDS011;54510;42.016;23.098;2024-03-02T09:56:53;19.27;;;10.95;;
7336;SDS011;54510;42.016;23.098;2024-03-02T09:59:19;11.98;;;8.90;;
7336;SDS011;54510;42.016;23.098;2024-03-02T10:02:03;12.07;;;7.60;;
7336;SDS011;54510;42.016;23.098;2024-03-02T10:04:29;11.45;;;6.93;;
7336;SDS011;54510;42.016;23.098;2024-03-02T10:07:09;9.52;;;6.43;;
7336;SDS011;54510;42.016;23.098;2024-03-02T10:09:36;14.15;;;7.55;;
7336;SDS011;54510;42.016;23.098;2024-03-02T10:12:04;9.73;;;5.90;;
7336;SDS011;54510;42.016;23.098;2024-03-02T10:14:30;11.65;;;6.18;;
7336;SDS011;54510;42.016;23.098;2024-03-02T10:16:55;11.80;;;6.65;;
7336;SDS011;54510;42.016;23.098;2024-03-02T10:19:26;9.18;;;6.50;;
7336;SDS011;54510;42.016;23.098;2024-03-02T10:21:52;8.38;;;5.15;;
7336;SDS011;54510;42.016;23.098;2024-03-02T10:24:18;9.73;;;5.20;;
7336;SDS011;54510;42.016;23.098;2024-03-02T10:26:43;11.27;;;6.32;;
7336;SDS011;54510;42.016;23.098;2024-03-02T10:29:09;8.25;;;5.05;;
7336;SDS011;54510;42.016;23.098;2024-03-02T10:31:36;7.00;;;4.03;;
7336;SDS011;54510;42.016;23.098;2024-03-02T10:34:01;17.98;;;10.75;;
7336;SDS011;54510;42.016;23.098;2024-03-02T10:36:27;13.40;;;7.50;;
7336;SDS011;54510;42.016;23.098;2024-03-02T10:38:53;19.88;;;8.82;;
7336;SDS011;54510;42.016;23.098;2024-03-02T10:41:23;13.60;;;8.15;;
7336;SDS011;54510;42.016;23.098;2024-03-02T10:43:48;11.15;;;6.97;;
7336;SDS011;54510;42.016;23.098;2024-03-02T10:46:14;15.63;;;9.30;;
7336;SDS011;54510;42.016;23.098;2024-03-02T10:48:41;12.25;;;6.70;;
7336;SDS011;54510;42.016;23.098;2024-03-02T10:51:09;14.48;;;7.28;;
7336;SDS011;54510;42.016;23.098;2024-03-02T10:53:34;10.80;;;6.75;;
7336;SDS011;54510;42.016;23.098;2024-03-02T10:56:00;12.95;;;7.28;;
7336;SDS011;54510;42.016;23.098;2024-03-02T10:58:27;14.07;;;7.30;;
7336;SDS011;54510;42.016;23.098;2024-03-02T11:00:56;30.88;;;18.75;;
7336;SDS011;54510;42.016;23.098;2024-03-02T11:03:22;12.30;;;8.05;;
7336;SDS011;54510;42.016;23.098;2024-03-02T11:05:47;10.57;;;7.38;;
7336;SDS011;54510;42.016;23.098;2024-03-02T11:08:13;11.50;;;7.05;;
7336;SDS011;54510;42.016;23.098;2024-03-02T11:11:02;10.93;;;7.47;;
7336;SDS011;54510;42.016;23.098;2024-03-02T11:13:32;15.77;;;10.45;;
7336;SDS011;54510;42.016;23.098;2024-03-02T11:16:05;13.05;;;8.15;;
7336;SDS011;54510;42.016;23.098;2024-03-02T11:18:31;18.50;;;10.70;;
7336;SDS011;54510;42.016;23.098;2024-03-02T11:20:57;45.15;;;25.95;;
7336;SDS011;54510;42.016;23.098;2024-03-02T11:23:32;20.20;;;10.20;;
7336;SDS011;54510;42.016;23.098;2024-03-02T11:26:31;14.43;;;8.25;;
7336;SDS011;54510;42.016;23.098;2024-03-02T11:28:50;12.75;;;8.68;;
7336;SDS011;54510;42.016;23.098;2024-03-02T11:31:15;10.20;;;6.40;;
7336;SDS011;54510;42.016;23.098;2024-03-02T11:33:41;10.80;;;6.57;;
7336;SDS011;54510;42.016;23.098;2024-03-02T11:36:06;15.77;;;9.32;;
7336;SDS011;54510;42.016;23.098;2024-03-02T11:38:32;15.45;;;7.47;;
7336;SDS011;54510;42.016;23.098;2024-03-02T11:40:59;8.73;;;5.68;;
7336;SDS011;54510;42.016;23.098;2024-03-02T11:43:25;8.80;;;5.32;;
7336;SDS011;54510;42.016;23.098;2024-03-02T11:45:56;9.68;;;6.85;;
7336;SDS011;54510;42.016;23.098;2024-03-02T11:48:21;11.52;;;5.90;;
7336;SDS011;54510;42.016;23.098;2024-03-02T11:50:48;8.48;;;5.65;;
7336;SDS011;54510;42.016;23.098;2024-03-02T11:53:14;7.43;;;5.68;;
7336;SDS011;54510;42.016;23.098;2024-03-02T11:55:40;10.43;;;5.75;;
7336;SDS011;54510;42.016;23.098;2024-03-02T11:58:14;9.90;;;5.88;;
7336;SDS011;54510;42.016;23.098;2024-03-02T12:00:42;12.05;;;5.15;;
7336;SDS011;54510;42.016;23.098;2024-03-02T12:03:09;6.80;;;4.70;;
7336;SDS011;54510;42.016;23.098;2024-03-02T12:05:35;7.13;;;4.43;;
7336;SDS011;54510;42.016;23.098;2024-03-02T12:08:01;7.70;;;4.65;;
7336;SDS011;54510;42.016;23.098;2024-03-02T12:10:27;6.28;;;4.15;;
7336;SDS011;54510;42.016;23.098;2024-03-02T12:13:11;6.13;;;4.00;;
7336;SDS011;54510;42.016;23.098;2024-03-02T12:15:36;9.60;;;6.15;;
7336;SDS011;54510;42.016;23.098;2024-03-02T12:18:02;11.68;;;7.47;;
7336;SDS011;54510;42.016;23.098;2024-03-02T12:20:28;17.70;;;8.02;;
7336;SDS011;54510;42.016;23.098;2024-03-02T12:22:55;9.27;;;5.72;;
7336;SDS011;54510;42.016;23.098;2024-03-02T12:25:20;8.85;;;4.28;;
7336;SDS011;54510;42.016;23.098;2024-03-02T12:27:46;8.27;;;5.53;;
7336;SDS011;54510;42.016;23.098;2024-03-02T12:30:12;6.78;;;4.10;;
7336;SDS011;54510;42.016;23.098;2024-03-02T12:32:39;6.47;;;4.25;;
7336;SDS011;54510;42.016;23.098;2024-03-02T12:35:04;7.82;;;4.63;;
7336;SDS011;54510;42.016;23.098;2024-03-02T12:37:30;6.90;;;4.13;;
7336;SDS011;54510;42.016;23.098;2024-03-02T12:39:55;10.10;;;4.45;;
7336;SDS011;54510;42.016;23.098;2024-03-02T12:42:20;7.45;;;4.57;;
7336;SDS011;54510;42.016;23.098;2024-03-02T12:44:46;6.68;;;3.92;;
7336;SDS011;54510;42.016;23.098;2024-03-02T12:47:11;9.73;;;4.43;;
7336;SDS011;54510;42.016;23.098;2024-03-02T12:49:39;7.90;;;4.05;;
7336;SDS011;54510;42.016;23.098;2024-03-02T12:52:04;5.47;;;3.45;;
7336;SDS011;54510;42.016;23.098;2024-03-02T12:54:30;5.63;;;3.25;;
7336;SDS011;54510;42.016;23.098;2024-03-02T12:56:56;4.45;;;3.10;;
7336;SDS011;54510;42.016;23.098;2024-03-02T12:59:23;7.55;;;3.85;;
7336;SDS011;54510;42.016;23.098;2024-03-02T13:01:55;6.45;;;3.38;;
7336;SDS011;54510;42.016;23.098;2024-03-02T13:04:28;6.35;;;3.60;;
7336;SDS011;54510;42.016;23.098;2024-03-02T13:06:53;5.20;;;3.03;;
7336;SDS011;54510;42.016;23.098;2024-03-02T13:09:20;8.43;;;3.58;;
7336;SDS011;54510;42.016;23.098;2024-03-02T13:11:45;7.90;;;2.88;;
7336;SDS011;54510;42.016;23.098;2024-03-02T13:14:11;4.32;;;2.95;;
7336;SDS011;54510;42.016;23.098;2024-03-02T13:16:44;8.35;;;4.20;;
7336;SDS011;54510;42.016;23.098;2024-03-02T13:19:11;7.05;;;3.55;;
7336;SDS011;54510;42.016;23.098;2024-03-02T13:21:36;13.82;;;3.60;;
7336;SDS011;54510;42.016;23.098;2024-03-02T13:24:02;4.72;;;2.83;;
7336;SDS011;54510;42.016;23.098;2024-03-02T13:26:28;4.00;;;3.30;;
7336;SDS011;54510;42.016;23.098;2024-03-02T13:28:53;5.13;;;3.22;;
7336;SDS011;54510;42.016;23.098;2024-03-02T13:31:18;4.70;;;2.88;;
7336;SDS011;54510;42.016;23.098;2024-03-02T13:33:44;5.38;;;3.65;;
7336;SDS011;54510;42.016;23.098;2024-03-02T13:36:09;4.45;;;3.13;;
7336;SDS011;54510;42.016;23.098;2024-03-02T13:38:34;6.55;;;3.30;;
7336;SDS011;54510;42.016;23.098;2024-03-02T13:41:01;6.00;;;3.70;;
7336;SDS011;54510;42.016;23.098;2024-03-02T13:43:26;7.10;;;3.40;;
7336;SDS011;54510;42.016;23.098;2024-03-02T13:45:52;5.43;;;2.80;;
7336;SDS011;54510;42.016;23.098;2024-03-02T13:48:18;8.38;;;4.28;;
7336;SDS011;54510;42.016;23.098;2024-03-02T13:50:43;6.85;;;3.53;;
7336;SDS011;54510;42.016;23.098;2024-03-02T13:53:10;5.50;;;3.40;;
7336;SDS011;54510;42.016;23.098;2024-03-02T13:55:35;6.68;;;3.33;;
7336;SDS011;54510;42.016;23.098;2024-03-02T13:58:01;7.90;;;3.80;;
7336;SDS011;54510;42.016;23.098;2024-03-02T14:00:26;6.80;;;3.85;;
7336;SDS011;54510;42.016;23.098;2024-03-02T14:02:51;5.03;;;2.95;;
7336;SDS011;54510;42.016;23.098;2024-03-02T14:05:16;4.97;;;3.25;;
7336;SDS011;54510;42.016;23.098;2024-03-02T14:07:42;8.65;;;5.03;;
7336;SDS011;54510;42.016;23.098;2024-03-02T14:10:08;6.25;;;3.50;;
7336;SDS011;54510;42.016;23.098;2024-03-02T14:12:34;5.85;;;3.45;;
7336;SDS011;54510;42.016;23.098;2024-03-02T14:14:59;7.43;;;3.22;;
7336;SDS011;54510;42.016;23.098;2024-03-02T14:17:27;6.35;;;3.50;;
7336;SDS011;54510;42.016;23.098;2024-03-02T14:19:52;5.60;;;2.83;;
7336;SDS011;54510;42.016;23.098;2024-03-02T14:22:18;8.98;;;3.78;;
7336;SDS011;54510;42.016;23.098;2024-03-02T14:24:44;6.75;;;3.55;;